createdAt,value
2017-11-26T00:53:23.048Z,93.10
2017-11-26T00:55:50.629Z,93.10
2017-11-26T00:58:18.868Z,93.30
2017-11-26T01:00:46.346Z,93.30
2017-11-26T01:03:13.828Z,93.60
2017-11-26T01:05:42.075Z,93.70
2017-11-26T01:08:09.593Z,93.70
2017-11-26T01:10:37.076Z,94.00
2017-11-26T01:13:04.569Z,94.00
2017-11-26T01:15:32.818Z,94.00
2017-11-26T01:18:00.300Z,94.00
2017-11-26T01:20:27.798Z,93.90
2017-11-26T01:22:55.272Z,93.70
2017-11-26T01:25:22.760Z,93.80
2017-11-26T01:27:50.246Z,93.80
2017-11-26T01:30:18.531Z,93.90
2017-11-26T01:32:46.788Z,93.70
2017-11-26T01:35:15.087Z,93.80
2017-11-26T01:37:43.336Z,93.80
2017-11-26T01:40:10.806Z,93.90
2017-11-26T01:42:39.057Z,93.80
2017-11-26T01:45:06.538Z,93.80
2017-11-26T01:47:34.793Z,94.00
2017-11-26T01:50:02.329Z,94.00
2017-11-26T01:52:29.804Z,93.80
2017-11-26T01:54:57.293Z,93.80
2017-11-26T01:57:25.540Z,93.80
2017-11-26T01:59:53.125Z,93.80
2017-11-26T02:02:21.364Z,93.70
2017-11-26T02:04:48.857Z,93.70
2017-11-26T10:27:44.082Z,91.00
2017-11-26T10:30:11.552Z,91.10
2017-11-26T10:32:39.049Z,90.80
2017-11-26T10:35:06.531Z,90.80
2017-11-26T10:37:33.997Z,90.80
2017-11-26T10:40:01.489Z,90.60
2017-11-26T10:42:28.960Z,90.50
2017-11-26T10:44:57.212Z,90.30
2017-11-26T10:47:24.686Z,90.30
2017-11-26T10:49:52.184Z,90.40
2017-11-26T10:52:19.654Z,90.20
2017-11-26T10:54:47.124Z,90.30
2017-11-26T10:57:14.620Z,90.20
2017-11-26T10:59:42.853Z,90.20
2017-11-26T11:02:10.332Z,90.20
2017-11-26T11:04:37.788Z,90.20
2017-11-26T11:07:05.412Z,90.10
2017-11-26T11:09:32.885Z,90.00
2017-11-26T11:12:00.365Z,90.10
2017-11-26T11:14:27.860Z,89.70
2017-11-26T11:16:56.097Z,89.30
2017-11-26T11:19:23.608Z,89.30
2017-11-26T11:21:51.081Z,89.50
2017-11-26T11:24:18.580Z,89.40
2017-11-26T11:26:46.062Z,88.80
2017-11-26T11:29:14.304Z,88.70
2017-11-26T11:31:41.793Z,88.70
2017-11-26T11:34:10.040Z,88.80
2017-11-26T11:36:37.521Z,88.80
2017-11-26T11:39:04.996Z,88.80
2017-11-26T11:41:33.266Z,88.90
2017-11-26T11:44:01.512Z,89.00
2017-11-26T11:46:28.991Z,89.00
2017-11-26T11:48:57.258Z,89.00
2017-11-26T11:51:24.803Z,89.00
2017-11-26T11:53:52.293Z,88.90
2017-11-26T11:56:20.605Z,89.90
2017-11-26T11:58:48.129Z,89.20
2017-11-26T12:01:17.384Z,89.10
2017-11-26T12:03:44.857Z,88.90
2017-11-26T12:06:12.377Z,88.70
2017-11-26T12:08:39.844Z,89.00
2017-11-26T12:11:07.340Z,88.80
2017-11-26T12:13:34.820Z,89.10
2017-11-26T12:16:03.140Z,89.20
2017-11-26T12:18:30.608Z,89.20
2017-11-26T12:20:58.141Z,89.10
2017-11-26T12:23:25.717Z,89.30
2017-11-26T12:25:53.262Z,88.80
2017-11-26T12:28:20.756Z,88.60
2017-11-26T12:30:48.248Z,88.40
2017-11-26T12:33:16.570Z,88.30
2017-11-26T12:35:44.049Z,88.30
2017-11-26T12:38:11.563Z,87.10
2017-11-26T12:40:39.829Z,87.50
2017-11-26T12:43:08.108Z,87.50
2017-11-26T12:45:36.391Z,87.90
2017-11-26T12:48:04.625Z,87.60
2017-11-26T12:50:32.146Z,87.60
2017-11-26T12:52:59.623Z,87.70
2017-11-26T12:55:27.240Z,87.90
2017-11-26T12:57:55.517Z,88.00
2017-11-26T13:00:23.060Z,88.00
2017-11-26T13:02:50.548Z,88.00
2017-11-26T13:05:18.031Z,88.40
2017-11-26T13:07:45.668Z,88.60
2017-11-26T13:10:13.896Z,88.70
2017-11-26T13:12:41.386Z,88.70
2017-11-26T13:15:09.705Z,89.00
2017-11-26T13:17:37.209Z,89.00
2017-11-26T13:20:04.696Z,88.70
2017-11-26T13:22:32.168Z,88.90
2017-11-26T13:24:59.695Z,88.30
2017-11-26T13:27:27.965Z,88.30
2017-11-26T13:29:56.209Z,88.60
2017-11-26T13:32:23.753Z,88.60
2017-11-26T13:34:51.256Z,88.70
2017-11-26T13:37:19.520Z,88.90
2017-11-26T13:39:47.033Z,88.20
2017-11-26T13:42:14.639Z,88.50
2017-11-26T13:44:42.132Z,89.00
2017-11-26T13:47:10.401Z,89.10
2017-11-26T13:49:38.673Z,88.70
2017-11-26T13:52:07.253Z,89.80
2017-11-26T13:54:35.521Z,88.70
2017-11-26T13:57:03.016Z,88.70
2017-11-26T13:59:30.495Z,88.70
2017-11-26T14:01:57.981Z,88.00
2017-11-26T14:04:25.457Z,88.20
2017-11-26T14:06:53.731Z,88.60
2017-11-26T14:09:21.981Z,89.30
2017-11-26T14:11:49.456Z,88.60
2017-11-26T14:14:16.954Z,88.40
2017-11-26T14:16:44.529Z,88.60
2017-11-26T14:19:12.428Z,88.30
2017-11-26T14:21:39.947Z,89.00
2017-11-26T14:24:07.449Z,88.80
2017-11-26T14:26:34.976Z,88.60
2017-11-26T14:29:02.475Z,88.80
2017-11-26T14:31:29.961Z,88.80
2017-11-26T14:33:58.196Z,88.50
2017-11-26T14:36:25.701Z,88.50
2017-11-26T14:38:53.939Z,88.30
2017-11-26T14:41:21.436Z,88.40
2017-11-26T14:43:49.673Z,88.90
2017-11-26T14:46:17.157Z,88.90
2017-11-26T14:48:45.425Z,88.70
2017-11-26T14:51:12.907Z,88.70
2017-11-26T14:53:41.185Z,88.70
2017-11-26T14:56:08.676Z,88.70
2017-11-26T14:58:36.189Z,88.90
2017-11-26T15:01:04.433Z,88.60
2017-11-26T15:03:31.917Z,88.50
2017-11-26T15:05:59.407Z,89.10
2017-11-26T15:08:26.896Z,88.90
2017-11-26T15:10:54.407Z,88.70
2017-11-26T15:13:22.661Z,88.70
2017-11-26T15:15:50.147Z,88.70
2017-11-26T15:18:18.400Z,89.10
2017-11-26T15:20:45.873Z,89.10
2017-11-26T15:23:14.126Z,88.90
2017-11-26T15:25:41.596Z,88.90
2017-11-26T15:28:09.865Z,89.20
2017-11-26T15:30:38.113Z,89.00
2017-11-26T15:33:05.614Z,88.90
2017-11-26T15:35:33.178Z,89.10
2017-11-26T15:38:01.495Z,89.00
2017-11-26T15:40:28.978Z,88.90
2017-11-26T15:42:56.446Z,89.00
2017-11-26T15:45:23.956Z,89.10
2017-11-26T15:47:51.435Z,89.20
2017-11-26T15:50:18.933Z,89.50
2017-11-26T15:52:47.183Z,90.00
2017-11-26T15:55:14.696Z,90.00
2017-11-26T15:57:42.182Z,90.00
2017-11-26T16:00:09.659Z,90.00
2017-11-26T16:02:37.272Z,90.00
2017-11-26T16:05:04.786Z,90.20
2017-11-26T16:07:32.275Z,90.30
2017-11-26T16:10:00.575Z,90.40
2017-11-26T16:12:28.051Z,90.40
2017-11-26T16:14:55.554Z,90.40
2017-11-26T16:17:23.029Z,90.40
2017-11-26T16:19:51.285Z,90.50
2017-11-26T16:22:18.760Z,90.50
2017-11-26T16:24:47.060Z,90.80
2017-11-26T16:27:14.544Z,90.80
2017-11-26T16:29:42.036Z,90.80
2017-11-26T16:32:09.516Z,90.70
2017-11-26T16:34:37.747Z,90.80
2017-11-26T16:37:05.236Z,90.80
2017-11-26T16:39:32.862Z,90.90
2017-11-26T16:42:00.437Z,90.90
2017-11-26T16:44:27.916Z,91.10
2017-11-26T16:46:55.393Z,91.10
2017-11-26T16:49:23.651Z,91.10
2017-11-26T16:51:51.975Z,91.20
2017-11-26T16:54:19.526Z,91.10
2017-11-26T16:56:47.005Z,91.20
2017-11-26T16:59:14.488Z,91.40
2017-11-26T17:01:42.114Z,91.20
2017-11-26T17:04:09.630Z,91.30
2017-11-26T17:06:37.884Z,91.40
2017-11-26T17:09:05.409Z,91.30
2017-11-26T17:11:32.916Z,91.30
2017-11-26T17:14:01.193Z,91.30
2017-11-26T17:16:28.676Z,91.30
2017-11-26T17:18:57.179Z,91.50
2017-11-26T17:21:24.823Z,91.50
2017-11-26T17:23:52.329Z,91.50
2017-11-26T17:26:19.858Z,91.40
2017-11-26T17:28:47.420Z,91.40
2017-11-26T17:31:15.010Z,91.50
2017-11-26T17:33:42.487Z,91.50
2017-11-26T17:36:09.996Z,91.60
2017-11-26T17:38:37.481Z,91.60
2017-11-26T17:41:04.974Z,91.50
2017-11-26T17:43:33.325Z,91.50
2017-11-26T17:46:00.851Z,91.50
2017-11-26T17:48:28.336Z,91.60
2017-11-26T17:50:55.835Z,91.70
2017-11-26T17:53:24.087Z,91.70
2017-11-26T17:55:51.637Z,91.70
2017-11-26T17:58:19.244Z,91.60
2017-11-26T18:00:48.284Z,91.70
2017-11-26T18:03:15.752Z,91.60
2017-11-26T18:05:43.249Z,91.60
2017-11-26T18:08:11.543Z,91.90
2017-11-26T18:10:39.113Z,91.90
2017-11-26T18:13:06.654Z,91.70
2017-11-26T18:15:34.152Z,91.90
2017-11-26T18:18:01.640Z,91.80
2017-11-26T18:20:29.109Z,91.80
2017-11-26T18:22:57.408Z,91.80
2017-11-26T18:25:25.669Z,91.70
2017-11-26T18:27:53.960Z,91.70
2017-11-26T18:30:22.208Z,91.70
2017-11-26T18:32:49.699Z,91.70
2017-11-26T18:35:17.166Z,91.70
2017-11-26T18:37:44.638Z,91.70
2017-11-26T18:40:12.151Z,91.70
2017-11-26T18:42:40.394Z,91.60
2017-11-26T18:45:07.885Z,91.60
2017-11-26T18:47:36.128Z,91.50
2017-11-26T18:50:03.598Z,91.50
2017-11-26T18:52:31.102Z,91.50
2017-11-26T18:54:58.595Z,91.60
2017-11-26T18:57:26.096Z,91.60
2017-11-26T18:59:54.343Z,91.60
2017-11-26T19:02:21.825Z,91.50
2017-11-26T19:04:50.117Z,91.80
2017-11-26T19:07:18.405Z,91.50
2017-11-26T19:09:46.845Z,91.60
2017-11-26T19:12:14.323Z,91.60
2017-11-26T19:14:42.675Z,91.60
2017-11-26T19:17:10.190Z,91.60
2017-11-26T19:19:37.689Z,91.60
2017-11-26T19:22:05.198Z,91.60
2017-11-26T19:24:32.673Z,91.60
2017-11-26T19:27:00.166Z,91.40
2017-11-26T19:29:27.711Z,91.30
2017-11-26T19:31:55.268Z,91.40
2017-11-26T19:34:22.780Z,91.50
2017-11-26T19:36:51.095Z,91.40
2017-11-26T19:39:18.725Z,91.40
2017-11-26T19:41:47.037Z,91.10
2017-11-26T19:44:15.801Z,91.10
2017-11-26T19:46:43.306Z,90.90
2017-11-26T19:49:11.729Z,91.00
2017-11-26T19:51:39.975Z,90.60
2017-11-26T19:54:07.466Z,90.60
2017-11-26T19:56:35.134Z,90.70
2017-11-26T19:59:04.113Z,91.00
2017-11-26T20:01:32.364Z,91.00
2017-11-26T20:03:59.913Z,91.00
2017-11-26T20:06:27.439Z,91.00
2017-11-26T20:08:54.922Z,91.10
2017-11-26T20:11:22.391Z,91.20
2017-11-26T20:13:49.883Z,91.30
2017-11-26T20:17:25.176Z,91.30
2017-11-26T20:19:52.644Z,91.20
2017-11-26T20:22:20.128Z,91.30
2017-11-26T20:24:48.451Z,91.30
2017-11-26T20:27:34.766Z,91.20
2017-11-26T20:30:02.472Z,91.20
2017-11-26T20:32:29.937Z,91.10
2017-11-26T20:34:58.197Z,91.10
2017-11-26T20:37:25.688Z,91.10
2017-11-26T20:39:53.945Z,91.10
2017-11-26T20:42:21.454Z,91.10
2017-11-26T20:44:48.933Z,91.30
2017-11-26T20:47:16.520Z,91.10
2017-11-26T20:49:44.022Z,91.20
2017-11-26T20:52:13.928Z,91.30
2017-11-26T20:54:41.514Z,91.30
2017-11-26T20:57:09.779Z,91.30
2017-11-26T20:59:37.273Z,91.20
2017-11-26T21:02:04.777Z,91.30
2017-11-26T21:04:32.254Z,91.20
2017-11-26T21:06:59.748Z,90.90
2017-11-26T21:09:27.242Z,91.10
2017-11-26T21:11:54.778Z,91.10
2017-11-26T21:14:22.264Z,91.00
2017-11-26T21:16:49.736Z,91.00
2017-11-26T21:19:17.257Z,90.80
2017-11-26T21:21:44.781Z,90.90
2017-11-26T21:24:13.065Z,90.90
2017-11-26T21:26:41.412Z,91.10
2017-11-26T21:29:08.917Z,91.10
2017-11-26T21:31:36.419Z,90.90
2017-11-26T21:34:03.929Z,90.90
2017-11-26T21:36:31.545Z,90.90
2017-11-26T21:38:59.012Z,90.90
2017-11-26T21:41:26.507Z,91.00
2017-11-26T21:43:54.037Z,91.10
2017-11-26T21:46:23.345Z,91.00
2017-11-26T21:48:51.673Z,91.00
2017-11-26T21:51:19.321Z,91.00
2017-11-26T21:53:46.825Z,90.90
2017-11-26T21:56:14.342Z,90.90
2017-11-26T21:58:41.902Z,90.90
2017-11-26T22:01:09.435Z,90.90
2017-11-26T22:03:37.682Z,90.90
2017-11-26T22:06:05.156Z,90.90
2017-11-26T22:08:33.493Z,90.90
2017-11-26T22:11:00.965Z,90.90
2017-11-26T22:13:28.881Z,90.90
2017-11-26T22:15:56.376Z,90.90
2017-11-26T22:18:23.857Z,90.90
2017-11-26T22:20:51.345Z,91.00
2017-11-26T22:23:19.638Z,90.90
2017-11-26T22:25:47.133Z,90.90
2017-11-26T22:28:14.617Z,90.90
2017-11-26T22:30:42.180Z,91.00
2017-11-26T22:33:09.712Z,91.00
2017-11-26T22:35:37.189Z,91.10
2017-11-26T22:38:04.687Z,91.10
2017-11-26T22:40:32.173Z,90.90
2017-11-26T22:42:59.661Z,90.80
2017-11-26T22:45:27.162Z,90.70
2017-11-26T22:47:54.636Z,90.70
2017-11-26T22:50:22.153Z,90.80
2017-11-26T22:52:49.621Z,90.60
2017-11-26T22:55:17.856Z,90.40
2017-11-26T22:57:45.345Z,90.30
2017-11-26T23:00:13.587Z,90.40
2017-11-26T23:02:41.080Z,90.40
2017-11-26T23:05:09.324Z,90.50
2017-11-26T23:07:36.924Z,90.30
2017-11-26T23:10:05.188Z,90.90
2017-11-26T23:12:32.669Z,90.90
2017-11-26T23:16:23.051Z,91.30
2017-11-26T23:18:50.532Z,91.40
2017-11-26T23:21:18.846Z,91.80
2017-11-26T23:23:46.315Z,91.60
2017-11-26T23:26:13.788Z,91.80
2017-11-26T23:28:41.464Z,91.60
2017-11-26T23:31:08.977Z,91.80
2017-11-26T23:33:36.472Z,91.90
2017-11-26T23:36:03.943Z,91.50
2017-11-26T23:38:32.177Z,91.80
2017-11-26T23:40:59.672Z,91.80
2017-11-26T23:43:27.237Z,91.60
2017-11-26T23:45:55.556Z,91.90
2017-11-26T23:48:23.205Z,91.60
2017-11-26T23:50:51.001Z,91.40
2017-11-26T23:53:18.512Z,91.60
2017-11-26T23:55:46.783Z,91.50
2017-11-26T23:58:15.057Z,91.60
